02:14
Airports
History
Links
Donate
Help keep this website running!
PayPal
Bitcoin
This page is community maintained. The information is intended for PC simulator navigation or reference.
Always use approved charts for navigation.
VEGK
GORAKHPUR
GORAKHPUR (VEGK)
Gorakhpur, Uttar Pradesh, India (273202)
(C)
Lat/Lng:26° 44' 22.95" N / 83° 26' 58.95" E
26.739709 / 83.449709
Elevation:259'ft / 79mMSL
ID / ICAO:VEGK
Runways:1
Longest:11-29
Asphalt 2,736m / 8,976ft
Controlled:Yes
METAR01:30 GMT 2017-06-29
Altimeter: 30.24
Visibility: 3.7 statute miles
Wind: 2 knots (from VRB°)
Temp: 18°c / 64°f
Humidity: 55.6%

METAR: VEGK 290130Z VRB02KT 6000 FEW050 FEW030 BKN100 18/09 Q1024 NOSIG RMK K ANC C APC REST AC

(Powered by phpweather)
Airport Radio Frequencies
Tower: 118.5
Approach: 122.7
Nearby VORs <50NM
Nearby NDBs
Runway 11 / 29
Dimensions:2735.9 x 45.7m 8976' x 150'ft
Surface:Asphalt
Edge Lights:Medium intensity
Runway 11 [A]Runway 29 [B]
Heading:113°TH 293°TH
Lat:
Lng:
26° 44' 40.4"N
83° 26' 13.3"E
26° 44' 5.5"N
83° 27' 44.6"E
User Notes and Comments
26° 44' 22.95" N / 83° 26' 58.95" E
Distance To
Airport ID:
Nearby Airports
(C) Bhairahawa / Gautam Buddha 53.0 NM
VNBW N 357°
(U) AKBARPUR 58.1 NM
VI90 WSW 249°
(C) MEGHAULI 75.1 NM
VNMG NE 39°
(C) Bharatpur 88.4 NM
VNBP NE 42°
(C) VARANASI 96.2 NM
VIBN ( WX ) SSW 202°
(C) SIMARA 98.6 NM
VNSI ENE 72°
4 Baglung 102.7 NM
VNBL N
VFR Chart
Flight Planning at SkyVector.com